createdAt,value
2023-03-29T00:00:11.831Z,23.91
2023-03-29T00:00:41.871Z,23.89
2023-03-29T00:01:11.908Z,23.91
2023-03-29T00:01:41.979Z,23.94
2023-03-29T00:02:12.003Z,23.89
2023-03-29T00:02:42.160Z,23.91
2023-03-29T00:03:12.224Z,23.91
2023-03-29T00:03:42.333Z,23.92
2023-03-29T00:04:12.315Z,23.92
2023-03-29T00:04:42.433Z,23.91
2023-03-29T00:05:12.430Z,23.92
2023-03-29T00:05:42.428Z,23.91
2023-03-29T00:06:12.482Z,23.92
2023-03-29T00:06:42.516Z,23.95
2023-03-29T00:07:12.557Z,23.94
2023-03-29T00:07:42.590Z,23.92
2023-03-29T00:08:12.636Z,23.92
2023-03-29T00:08:42.667Z,23.92
2023-03-29T00:09:12.713Z,23.91
2023-03-29T00:09:42.761Z,23.94
2023-03-29T00:10:12.837Z,23.95
2023-03-29T00:10:42.940Z,23.94
2023-03-29T00:11:13.002Z,23.94
2023-03-29T00:11:43.083Z,23.94
2023-03-29T00:12:13.175Z,23.95
2023-03-29T00:12:43.259Z,23.94
2023-03-29T00:13:13.342Z,23.96
2023-03-29T00:13:43.417Z,23.96
2023-03-29T00:14:13.505Z,23.94
2023-03-29T00:14:43.645Z,23.96
2023-03-29T00:15:13.598Z,23.95
2023-03-29T00:15:43.675Z,23.98
2023-03-29T00:16:13.747Z,23.95
2023-03-29T00:16:43.882Z,23.98
2023-03-29T00:17:13.936Z,23.99
2023-03-29T00:17:44.118Z,24.01
2023-03-29T00:18:14.069Z,23.98
2023-03-29T00:18:44.147Z,23.94
2023-03-29T00:19:14.227Z,23.96
2023-03-29T00:19:44.336Z,23.96
2023-03-29T00:20:14.445Z,23.98
2023-03-29T00:20:44.513Z,23.98
2023-03-29T00:21:14.594Z,23.99
2023-03-29T00:21:44.691Z,23.98
2023-03-29T00:22:14.782Z,24.01
2023-03-29T00:22:44.859Z,23.99
2023-03-29T00:23:14.937Z,24.02
2023-03-29T00:23:45.013Z,24.02
2023-03-29T00:24:15.100Z,24.01
2023-03-29T00:24:45.211Z,23.99
2023-03-29T00:25:15.295Z,23.99
2023-03-29T00:25:45.378Z,23.99
2023-03-29T00:26:15.468Z,24.01
2023-03-29T00:26:45.556Z,24.02
2023-03-29T00:27:15.634Z,24.04
2023-03-29T00:27:45.714Z,24.05
2023-03-29T00:28:15.788Z,24.06
2023-03-29T00:28:45.862Z,24.04
2023-03-29T00:29:15.970Z,24.05
2023-03-29T00:29:46.071Z,24.04
2023-03-29T00:30:16.175Z,24.05
2023-03-29T00:30:46.239Z,24.06
2023-03-29T00:31:16.385Z,24.05
2023-03-29T00:31:46.399Z,24.04
2023-03-29T00:32:16.483Z,24.06
2023-03-29T00:32:46.570Z,24.05
2023-03-29T00:33:16.569Z,24.06
2023-03-29T00:33:46.655Z,24.04
2023-03-29T00:34:16.738Z,24.08
2023-03-29T00:34:46.849Z,24.09
2023-03-29T00:35:16.808Z,24.08
2023-03-29T00:35:46.917Z,24.08
2023-03-29T00:36:16.938Z,24.11
2023-03-29T00:36:47.004Z,24.09
2023-03-29T00:37:17.080Z,24.08
2023-03-29T00:37:47.205Z,24.11
2023-03-29T00:38:17.180Z,24.09
2023-03-29T00:38:47.258Z,24.09
2023-03-29T00:39:17.334Z,24.08
2023-03-29T00:39:47.444Z,24.11
2023-03-29T00:40:17.518Z,24.11
2023-03-29T00:40:47.597Z,24.11
2023-03-29T00:41:17.681Z,24.11
2023-03-29T00:41:47.759Z,24.06
2023-03-29T00:42:17.837Z,24.09
2023-03-29T00:42:47.925Z,24.04
2023-03-29T00:43:18.010Z,24.08
2023-03-29T00:43:48.085Z,24.08
2023-03-29T00:44:18.175Z,24.08
2023-03-29T00:44:48.270Z,24.09
2023-03-29T00:45:18.370Z,24.08
2023-03-29T00:45:48.433Z,24.08
2023-03-29T00:46:18.556Z,24.06
2023-03-29T00:46:48.595Z,24.06
2023-03-29T00:47:18.580Z,24.05
2023-03-29T00:47:48.718Z,24.06
2023-03-29T00:48:18.689Z,24.06
2023-03-29T00:48:48.775Z,24.06
2023-03-29T00:49:18.846Z,24.08
2023-03-29T00:49:48.949Z,24.06
2023-03-29T00:50:19.039Z,24.08
2023-03-29T00:50:49.125Z,24.09
2023-03-29T00:51:19.190Z,24.08
2023-03-29T00:51:49.274Z,24.12
2023-03-29T00:52:19.367Z,24.12
2023-03-29T00:52:49.450Z,24.12
2023-03-29T00:53:19.527Z,24.12
2023-03-29T00:53:49.604Z,24.11
2023-03-29T00:54:19.711Z,24.13
2023-03-29T00:54:49.826Z,24.12
2023-03-29T00:55:19.903Z,24.13
2023-03-29T00:55:49.984Z,24.13
2023-03-29T00:56:20.069Z,24.12
2023-03-29T00:56:50.209Z,24.12
2023-03-29T00:57:20.199Z,24.13
2023-03-29T00:57:50.280Z,24.12
2023-03-29T00:58:20.370Z,24.15
2023-03-29T00:58:50.450Z,24.15
2023-03-29T00:59:20.537Z,24.13
2023-03-29T00:59:50.640Z,24.16
2023-03-29T01:00:59.890Z,24.13
2023-03-29T01:01:29.899Z,24.15
2023-03-29T01:01:59.966Z,24.15
2023-03-29T01:02:30.120Z,24.12
2023-03-29T01:03:00.139Z,24.13
2023-03-29T01:03:30.163Z,24.13
2023-03-29T01:04:00.222Z,24.12
2023-03-29T01:04:30.153Z,24.11
2023-03-29T01:05:00.220Z,24.12
2023-03-29T01:05:30.243Z,24.11
2023-03-29T01:06:00.311Z,24.09
2023-03-29T01:06:30.391Z,24.09
2023-03-29T01:07:00.527Z,24.09
2023-03-29T01:07:30.514Z,24.09
2023-03-29T01:08:00.555Z,24.09
2023-03-29T01:08:30.587Z,24.08
2023-03-29T01:09:00.633Z,24.11
2023-03-29T01:09:30.683Z,24.11
2023-03-29T01:10:00.700Z,24.12
2023-03-29T01:10:30.746Z,24.11
2023-03-29T01:11:00.980Z,24.12
2023-03-29T01:11:30.945Z,24.13
2023-03-29T01:12:01.024Z,24.13
2023-03-29T01:12:31.111Z,24.15
2023-03-29T01:13:01.197Z,24.13
2023-03-29T01:13:31.280Z,24.16
2023-03-29T01:14:01.363Z,24.15
2023-03-29T01:14:31.450Z,24.13
2023-03-29T01:15:01.547Z,24.15
2023-03-29T01:15:31.632Z,24.15
2023-03-29T01:16:01.781Z,24.19
2023-03-29T01:16:31.762Z,24.17
2023-03-29T01:17:01.767Z,24.19
2023-03-29T01:17:31.948Z,24.19
2023-03-29T01:18:02.099Z,24.17
2023-03-29T01:18:31.996Z,24.17
2023-03-29T01:19:02.074Z,24.19
2023-03-29T01:19:32.146Z,24.16
2023-03-29T01:20:02.249Z,24.16
2023-03-29T01:20:32.328Z,24.20
2023-03-29T01:21:02.578Z,24.17
2023-03-29T01:21:32.479Z,24.16
2023-03-29T01:22:02.585Z,24.15
2023-03-29T01:22:32.661Z,24.16
2023-03-29T01:23:02.759Z,24.16
2023-03-29T01:23:32.837Z,24.17
2023-03-29T01:24:02.923Z,24.16
2023-03-29T01:24:33.003Z,24.17
2023-03-29T01:25:03.112Z,24.17
2023-03-29T01:25:33.170Z,24.12
2023-03-29T01:26:03.264Z,24.13
2023-03-29T01:26:33.248Z,24.15
2023-03-29T01:27:03.336Z,24.15
2023-03-29T01:27:33.425Z,24.13
2023-03-29T01:28:03.510Z,24.15
2023-03-29T01:28:33.590Z,24.16
2023-03-29T01:29:03.678Z,24.13
2023-03-29T01:29:33.763Z,24.13
2023-03-29T01:30:03.855Z,24.13
2023-03-29T01:30:33.928Z,24.12
2023-03-29T01:31:04.212Z,24.15
2023-03-29T01:31:34.143Z,24.13
2023-03-29T01:32:04.228Z,24.11
2023-03-29T01:32:34.258Z,24.11
2023-03-29T01:33:04.183Z,24.11
2023-03-29T01:33:34.178Z,24.11
2023-03-29T01:34:04.245Z,24.11
2023-03-29T01:34:34.344Z,24.09
2023-03-29T01:35:04.410Z,24.08
2023-03-29T01:35:34.497Z,24.08
2023-03-29T01:36:04.624Z,24.06
2023-03-29T01:36:34.571Z,24.05
2023-03-29T01:37:04.741Z,24.02
2023-03-29T01:37:34.700Z,24.05
2023-03-29T01:38:04.781Z,24.06
2023-03-29T01:38:34.866Z,24.05
2023-03-29T01:39:04.985Z,24.08
2023-03-29T01:39:34.949Z,24.08
2023-03-29T01:40:05.023Z,24.06
2023-03-29T01:40:35.102Z,24.06
2023-03-29T01:41:05.186Z,24.06
2023-03-29T01:41:35.273Z,24.06
2023-03-29T01:42:05.352Z,24.05
2023-03-29T01:42:35.440Z,24.06
2023-03-29T01:43:05.531Z,24.06
2023-03-29T01:43:35.605Z,24.06
2023-03-29T01:44:05.691Z,24.02
2023-03-29T01:44:35.768Z,24.01
2023-03-29T01:45:05.861Z,24.02
2023-03-29T01:45:35.955Z,24.01
2023-03-29T01:46:06.158Z,24.02
2023-03-29T01:46:36.251Z,24.05
2023-03-29T01:47:06.146Z,24.01
2023-03-29T01:47:36.315Z,23.99
2023-03-29T01:48:06.303Z,24.02
2023-03-29T01:48:36.373Z,24.04
2023-03-29T01:49:06.452Z,24.01
2023-03-29T01:49:36.527Z,24.02
2023-03-29T01:50:06.620Z,24.01
2023-03-29T01:50:36.710Z,24.02
2023-03-29T01:51:06.776Z,24.04
2023-03-29T01:51:36.852Z,23.99
2023-03-29T01:52:06.891Z,24.02
2023-03-29T01:52:36.982Z,23.99
2023-03-29T01:53:07.064Z,24.02
2023-03-29T01:53:37.160Z,23.99
2023-03-29T01:54:07.230Z,24.01
2023-03-29T01:54:37.305Z,23.96
2023-03-29T01:55:07.386Z,23.96
2023-03-29T01:55:37.464Z,23.99
2023-03-29T01:56:07.549Z,23.98
2023-03-29T01:56:37.743Z,23.96
2023-03-29T01:57:07.765Z,23.95
2023-03-29T01:57:37.839Z,23.92
2023-03-29T01:58:07.922Z,23.95
2023-03-29T01:58:37.999Z,23.96
2023-03-29T01:59:08.092Z,23.96
2023-03-29T01:59:38.178Z,23.95
2023-03-29T02:00:08.275Z,23.95
2023-03-29T02:00:38.339Z,23.94
2023-03-29T02:01:08.427Z,23.94
2023-03-29T02:01:38.679Z,23.89
2023-03-29T02:02:08.546Z,23.94
2023-03-29T02:02:38.631Z,23.92
2023-03-29T02:03:08.732Z,23.91
2023-03-29T02:03:38.750Z,23.91
2023-03-29T02:04:08.771Z,23.94
2023-03-29T02:04:38.827Z,23.88
2023-03-29T02:05:08.840Z,23.91
2023-03-29T02:05:38.893Z,23.88
2023-03-29T02:06:08.943Z,23.87
2023-03-29T02:06:38.979Z,23.87
2023-03-29T02:07:09.033Z,23.88
2023-03-29T02:07:39.090Z,23.87
2023-03-29T02:08:09.181Z,23.87
2023-03-29T02:08:39.221Z,23.85
2023-03-29T02:09:09.283Z,23.85
2023-03-29T02:09:39.315Z,23.85
2023-03-29T02:10:09.355Z,23.87
2023-03-29T02:10:39.409Z,23.84
2023-03-29T02:11:09.496Z,23.84
2023-03-29T02:11:39.582Z,23.83
2023-03-29T02:12:09.667Z,23.83
2023-03-29T02:12:39.745Z,23.87
2023-03-29T02:13:09.827Z,23.84
2023-03-29T02:13:39.911Z,23.85
2023-03-29T02:14:10.007Z,23.85
2023-03-29T02:14:40.081Z,23.85
2023-03-29T02:15:10.163Z,23.85
2023-03-29T02:15:40.314Z,23.80
2023-03-29T02:16:10.327Z,23.84
2023-03-29T02:16:40.284Z,23.83
2023-03-29T02:17:10.363Z,23.84
2023-03-29T02:17:40.496Z,23.81
2023-03-29T02:18:10.513Z,23.83
2023-03-29T02:18:40.479Z,23.83
2023-03-29T02:19:10.563Z,23.83
2023-03-29T02:19:40.636Z,23.80
2023-03-29T02:20:10.716Z,23.80
2023-03-29T02:20:40.833Z,23.81
2023-03-29T02:21:10.804Z,23.84
2023-03-29T02:21:40.884Z,23.83
2023-03-29T02:22:10.964Z,23.83
2023-03-29T02:22:41.060Z,23.84
2023-03-29T02:23:11.138Z,23.84
2023-03-29T02:23:41.220Z,23.81
2023-03-29T02:24:11.315Z,23.83
2023-03-29T02:24:41.376Z,23.83
2023-03-29T02:25:11.461Z,23.84
2023-03-29T02:25:41.566Z,23.83
2023-03-29T02:26:11.653Z,23.84
2023-03-29T02:26:41.753Z,23.83
2023-03-29T02:27:11.836Z,23.84
2023-03-29T02:27:41.921Z,23.85
2023-03-29T02:28:11.997Z,23.84
2023-03-29T02:28:42.074Z,23.84
2023-03-29T02:29:12.156Z,23.85
2023-03-29T02:29:42.244Z,23.84
2023-03-29T02:30:12.330Z,23.85
2023-03-29T02:30:42.420Z,23.85
2023-03-29T02:31:12.547Z,23.87
2023-03-29T02:31:42.582Z,23.84
2023-03-29T02:32:12.540Z,23.88
2023-03-29T02:32:42.748Z,23.87
2023-03-29T02:33:12.688Z,23.88
2023-03-29T02:33:42.777Z,23.88
2023-03-29T02:34:12.855Z,23.89
2023-03-29T02:34:42.934Z,23.89
2023-03-29T02:35:13.023Z,23.88
2023-03-29T02:35:43.374Z,23.89
2023-03-29T02:36:13.190Z,23.87
2023-03-29T02:37:13.138Z,23.91
2023-03-29T02:37:43.227Z,23.92
2023-03-29T02:38:13.310Z,23.94
2023-03-29T02:38:43.395Z,23.91
2023-03-29T02:39:13.478Z,23.91
2023-03-29T02:39:43.558Z,23.92
2023-03-29T02:40:13.649Z,23.89
2023-03-29T02:40:43.731Z,23.91
2023-03-29T02:41:13.811Z,23.91
2023-03-29T02:41:43.890Z,23.91
2023-03-29T02:42:13.976Z,23.91
2023-03-29T02:42:44.070Z,23.92
2023-03-29T02:43:14.168Z,23.91
2023-03-29T02:43:44.231Z,23.92
2023-03-29T02:44:14.309Z,23.89
2023-03-29T02:44:44.384Z,23.88
2023-03-29T02:45:14.475Z,23.89
2023-03-29T02:45:44.576Z,23.94
2023-03-29T02:46:14.680Z,23.94
2023-03-29T02:46:44.665Z,23.92
2023-03-29T02:47:14.733Z,23.92
2023-03-29T02:47:44.856Z,23.94
2023-03-29T02:48:14.924Z,23.94
2023-03-29T02:48:45.017Z,23.94
2023-03-29T02:49:15.090Z,23.92
2023-03-29T02:49:45.176Z,23.92
2023-03-29T02:50:15.260Z,23.91
2023-03-29T02:50:45.342Z,23.89
2023-03-29T02:51:16.319Z,23.89
2023-03-29T02:51:45.445Z,23.94
2023-03-29T02:52:15.540Z,23.92
2023-03-29T02:52:45.623Z,23.96
2023-03-29T02:53:15.710Z,23.95
2023-03-29T02:53:45.800Z,23.96
2023-03-29T02:54:15.885Z,23.98
2023-03-29T02:54:45.972Z,23.98
2023-03-29T02:55:16.050Z,23.96
2023-03-29T02:55:46.132Z,23.95
2023-03-29T02:56:16.219Z,23.96
2023-03-29T02:56:46.340Z,23.95
2023-03-29T02:57:16.528Z,23.94
2023-03-29T02:57:46.383Z,23.96
2023-03-29T02:58:16.471Z,23.95
2023-03-29T02:58:46.543Z,23.96
2023-03-29T02:59:16.626Z,23.98
2023-03-29T02:59:46.704Z,23.95
2023-03-29T03:00:16.822Z,23.98
2023-03-29T03:00:46.872Z,23.94
2023-03-29T03:01:16.913Z,23.95
2023-03-29T03:01:46.992Z,23.95
2023-03-29T03:02:17.064Z,23.99
2023-03-29T03:02:47.168Z,23.98
2023-03-29T03:03:17.228Z,23.95
2023-03-29T03:03:47.225Z,23.96
2023-03-29T03:04:17.282Z,23.92
2023-03-29T03:04:47.315Z,23.94
2023-03-29T03:05:17.361Z,23.94
2023-03-29T03:05:47.405Z,23.95
2023-03-29T03:06:17.435Z,23.94
2023-03-29T03:06:47.483Z,23.96
2023-03-29T03:07:17.542Z,23.99
2023-03-29T03:07:47.544Z,23.98
2023-03-29T03:08:17.577Z,23.98
2023-03-29T03:08:47.612Z,24.01
2023-03-29T03:09:17.657Z,24.02
2023-03-29T03:09:47.728Z,24.01
2023-03-29T03:10:17.732Z,24.02
2023-03-29T03:10:47.813Z,24.02
2023-03-29T03:11:17.883Z,24.04
2023-03-29T03:11:47.963Z,24.01
2023-03-29T03:12:18.063Z,24.02
2023-03-29T03:12:48.137Z,23.99
2023-03-29T03:13:18.214Z,23.99
2023-03-29T03:13:48.303Z,23.99
2023-03-29T03:14:18.392Z,24.01
2023-03-29T03:14:48.470Z,24.02
2023-03-29T03:15:18.550Z,23.99
2023-03-29T03:15:48.641Z,23.98
2023-03-29T03:16:18.794Z,23.99
2023-03-29T03:16:48.861Z,24.01
2023-03-29T03:17:18.854Z,24.01
2023-03-29T03:17:48.963Z,24.01
2023-03-29T03:18:18.937Z,24.01
2023-03-29T03:18:49.022Z,23.98
2023-03-29T03:19:19.110Z,23.99
2023-03-29T03:19:49.191Z,24.01
2023-03-29T03:20:19.266Z,23.99
2023-03-29T03:20:49.349Z,23.99
2023-03-29T03:21:19.440Z,24.01
2023-03-29T03:21:49.532Z,24.01
2023-03-29T03:22:19.615Z,24.01
2023-03-29T03:22:49.692Z,24.01
2023-03-29T03:23:19.767Z,24.04
2023-03-29T03:23:49.850Z,24.02
2023-03-29T03:24:19.920Z,24.04
2023-03-29T03:24:49.999Z,24.04
2023-03-29T03:25:20.085Z,24.05
2023-03-29T03:25:50.164Z,24.02
2023-03-29T03:26:20.259Z,24.04
2023-03-29T03:26:50.312Z,24.02
2023-03-29T03:27:20.391Z,24.05
2023-03-29T03:27:50.474Z,24.04
2023-03-29T03:28:20.573Z,24.05
2023-03-29T03:28:50.628Z,24.08
2023-03-29T03:29:20.721Z,24.06
2023-03-29T03:29:50.788Z,24.05
2023-03-29T03:30:20.915Z,24.04
2023-03-29T03:30:50.907Z,24.02
2023-03-29T03:31:21.033Z,23.98
2023-03-29T03:31:53.278Z,24.01
2023-03-29T03:32:20.985Z,24.01
2023-03-29T03:32:51.083Z,24.01
2023-03-29T03:33:21.157Z,23.98
2023-03-29T03:33:51.233Z,23.98
2023-03-29T03:34:21.317Z,23.95
2023-03-29T03:34:51.394Z,23.98
2023-03-29T03:35:21.490Z,23.96
2023-03-29T03:35:51.612Z,23.98
2023-03-29T03:36:21.671Z,23.95
2023-03-29T03:36:51.755Z,23.96
2023-03-29T03:37:21.837Z,23.94
2023-03-29T03:37:51.949Z,23.94
2023-03-29T03:38:22.011Z,23.94
2023-03-29T03:38:52.095Z,23.94
2023-03-29T03:39:22.179Z,23.92
2023-03-29T03:39:52.264Z,23.92
2023-03-29T03:40:22.346Z,23.92
2023-03-29T03:40:52.431Z,23.94
2023-03-29T03:41:22.523Z,23.92
2023-03-29T03:41:52.601Z,23.94
2023-03-29T03:42:22.675Z,23.94
2023-03-29T03:42:52.776Z,23.92
2023-03-29T03:43:22.857Z,23.89
2023-03-29T03:43:52.928Z,23.91
2023-03-29T03:44:23.013Z,23.92
2023-03-29T03:44:53.104Z,23.92
2023-03-29T03:45:23.185Z,23.88
2023-03-29T03:45:53.304Z,23.89
2023-03-29T03:46:23.431Z,23.87
2023-03-29T03:46:53.465Z,23.84
2023-03-29T03:47:23.536Z,23.85
2023-03-29T03:47:53.668Z,23.84
2023-03-29T03:48:23.618Z,23.85
2023-03-29T03:48:53.707Z,23.87
2023-03-29T03:49:23.790Z,23.85
2023-03-29T03:49:53.869Z,23.87
2023-03-29T03:50:23.949Z,23.87
2023-03-29T03:50:54.033Z,23.88
2023-03-29T03:51:24.111Z,23.92
2023-03-29T03:51:54.205Z,23.91
2023-03-29T03:52:24.272Z,23.95
2023-03-29T03:52:54.362Z,23.98
2023-03-29T03:53:24.448Z,24.01
2023-03-29T03:53:54.542Z,23.98
2023-03-29T03:54:24.604Z,23.99
2023-03-29T03:54:54.687Z,24.01
2023-03-29T03:55:24.792Z,24.01
2023-03-29T03:55:54.868Z,23.99
2023-03-29T03:56:24.944Z,23.96
2023-03-29T03:56:55.067Z,23.95
2023-03-29T03:57:25.060Z,23.96
2023-03-29T03:57:55.150Z,23.96
2023-03-29T03:58:25.234Z,23.95
2023-03-29T03:58:55.320Z,23.95
2023-03-29T03:59:25.393Z,23.94
2023-03-29T03:59:55.486Z,23.94
2023-03-29T04:00:25.569Z,23.94
2023-03-29T04:00:55.640Z,23.94
2023-03-29T04:01:25.707Z,23.96
2023-03-29T04:01:55.798Z,23.91
2023-03-29T04:02:25.887Z,23.94
2023-03-29T04:02:55.976Z,23.96
2023-03-29T04:03:25.985Z,23.98
2023-03-29T04:03:56.002Z,23.95
2023-03-29T04:04:25.912Z,23.95
2023-03-29T04:04:56.010Z,23.96
2023-03-29T04:05:26.030Z,23.94
2023-03-29T04:05:56.088Z,23.98
2023-03-29T04:06:26.124Z,23.99
2023-03-29T04:06:56.168Z,23.98
2023-03-29T04:07:26.209Z,23.99
2023-03-29T04:07:56.289Z,23.96
2023-03-29T04:08:26.305Z,23.96
2023-03-29T04:08:56.385Z,24.01
2023-03-29T04:09:26.421Z,24.05
2023-03-29T04:09:56.472Z,24.04
2023-03-29T04:10:26.459Z,24.05
2023-03-29T04:10:56.549Z,24.06
2023-03-29T04:11:26.698Z,24.02
2023-03-29T04:11:56.692Z,24.01
2023-03-29T04:12:26.768Z,23.99
2023-03-29T04:12:57.002Z,23.95
2023-03-29T04:13:26.845Z,23.91
2023-03-29T04:14:27.001Z,23.91
2023-03-29T04:14:57.073Z,23.85
2023-03-29T04:15:27.256Z,23.85
2023-03-29T04:16:00.137Z,23.87
2023-03-29T04:16:27.358Z,23.84
2023-03-29T04:16:57.287Z,23.84
2023-03-29T04:17:27.401Z,23.80
2023-03-29T04:17:57.573Z,23.81
2023-03-29T04:18:27.728Z,23.81
2023-03-29T04:18:57.785Z,23.80
2023-03-29T04:19:27.730Z,23.78
2023-03-29T04:19:57.813Z,23.80
2023-03-29T04:20:27.905Z,23.80
2023-03-29T04:20:57.985Z,23.80
2023-03-29T04:21:28.063Z,23.84
2023-03-29T04:21:58.172Z,23.81
2023-03-29T04:22:28.276Z,23.83
2023-03-29T04:22:58.324Z,23.81
2023-03-29T04:23:28.401Z,23.83
2023-03-29T04:23:58.492Z,23.84
2023-03-29T04:24:28.583Z,23.84
2023-03-29T04:24:58.665Z,23.85
2023-03-29T04:25:28.750Z,23.84
2023-03-29T04:25:58.745Z,23.88
2023-03-29T04:26:28.830Z,23.88
2023-03-29T04:26:58.912Z,23.89
2023-03-29T04:27:28.994Z,23.91
2023-03-29T04:27:59.069Z,23.91
2023-03-29T04:28:29.160Z,23.94
2023-03-29T04:28:59.252Z,23.91
2023-03-29T04:29:29.330Z,23.95
2023-03-29T04:29:59.406Z,23.98
2023-03-29T04:30:29.491Z,23.99
2023-03-29T04:30:59.721Z,23.99
2023-03-29T04:31:29.653Z,23.98
2023-03-29T04:31:59.673Z,23.99
2023-03-29T04:32:29.765Z,24.01
2023-03-29T04:32:59.878Z,24.01
2023-03-29T04:33:29.863Z,23.99
2023-03-29T04:34:00.507Z,23.98
2023-03-29T04:34:29.898Z,24.01
2023-03-29T04:34:59.977Z,24.01
2023-03-29T04:35:30.143Z,23.99
2023-03-29T04:36:00.241Z,24.02
2023-03-29T04:36:30.148Z,24.05
2023-03-29T04:37:00.216Z,24.06
2023-03-29T04:37:30.308Z,24.01
2023-03-29T04:38:00.420Z,24.02
2023-03-29T04:38:30.487Z,24.02
2023-03-29T04:39:00.568Z,24.04
2023-03-29T04:39:30.638Z,24.04
2023-03-29T04:40:00.735Z,24.04
2023-03-29T04:40:30.808Z,24.05
2023-03-29T04:41:01.160Z,24.05
2023-03-29T04:41:30.926Z,24.08
2023-03-29T04:42:01.015Z,24.09
2023-03-29T04:42:31.101Z,24.08
2023-03-29T04:43:01.192Z,24.12
2023-03-29T04:43:31.268Z,24.12
2023-03-29T04:44:01.358Z,24.12
2023-03-29T04:44:31.352Z,24.12
2023-03-29T04:45:01.533Z,24.16
2023-03-29T04:45:31.526Z,24.16
2023-03-29T04:46:01.645Z,24.19
2023-03-29T04:46:31.694Z,24.17
2023-03-29T04:47:01.691Z,24.22
2023-03-29T04:47:31.781Z,24.23
2023-03-29T04:48:01.902Z,24.20
2023-03-29T04:48:31.906Z,24.23
2023-03-29T04:49:01.985Z,24.23
2023-03-29T04:49:32.052Z,24.23
2023-03-29T04:50:02.137Z,24.23
2023-03-29T04:50:32.219Z,24.26
2023-03-29T04:51:02.494Z,24.24
2023-03-29T04:51:32.332Z,24.26
2023-03-29T04:52:02.433Z,24.26
2023-03-29T04:52:32.510Z,24.29
2023-03-29T04:53:02.595Z,24.23
2023-03-29T04:53:32.665Z,24.26
2023-03-29T04:54:02.749Z,24.26
2023-03-29T04:54:32.846Z,24.26
2023-03-29T04:55:02.933Z,24.24
2023-03-29T04:55:33.026Z,24.26
2023-03-29T04:56:03.101Z,24.27
2023-03-29T04:56:33.185Z,24.29
2023-03-29T04:57:03.289Z,24.30
2023-03-29T04:57:33.359Z,24.30
2023-03-29T04:58:03.454Z,24.29
2023-03-29T04:58:33.541Z,24.27
2023-03-29T04:59:03.630Z,24.30
2023-03-29T04:59:33.700Z,24.27
2023-03-29T05:00:03.766Z,24.27
2023-03-29T05:00:33.861Z,24.26
2023-03-29T05:01:04.007Z,24.26
2023-03-29T05:01:34.048Z,24.23
2023-03-29T05:02:04.179Z,24.23
2023-03-29T05:02:34.197Z,24.23
2023-03-29T05:03:04.322Z,24.22
2023-03-29T05:03:34.333Z,24.19
2023-03-29T05:04:04.409Z,24.19
2023-03-29T05:04:34.459Z,24.17
2023-03-29T05:05:04.438Z,24.20
2023-03-29T05:05:34.478Z,24.17
2023-03-29T05:06:04.520Z,24.16
2023-03-29T05:06:34.557Z,24.16
2023-03-29T05:07:04.603Z,24.15
2023-03-29T05:07:34.645Z,24.15
2023-03-29T05:08:04.701Z,24.13
2023-03-29T05:08:34.725Z,24.13
2023-03-29T05:09:04.787Z,24.12
2023-03-29T05:09:35.564Z,24.13
2023-03-29T05:10:04.857Z,24.11
2023-03-29T05:10:34.904Z,24.08
2023-03-29T05:11:05.034Z,24.08
2023-03-29T05:11:34.977Z,24.06
2023-03-29T05:12:05.093Z,24.09
2023-03-29T05:12:35.184Z,24.08
2023-03-29T05:13:05.307Z,24.05
2023-03-29T05:13:35.315Z,24.06
2023-03-29T05:14:05.391Z,24.05
2023-03-29T05:14:35.485Z,24.08
2023-03-29T05:15:05.569Z,24.08
2023-03-29T05:15:35.636Z,24.06
2023-03-29T05:16:05.767Z,24.09
2023-03-29T05:16:35.831Z,24.09
2023-03-29T05:17:05.727Z,24.06
2023-03-29T05:17:35.850Z,24.06
2023-03-29T05:18:05.889Z,24.05
2023-03-29T05:18:35.849Z,24.08
2023-03-29T05:19:05.935Z,24.06
2023-03-29T05:19:36.043Z,24.09
2023-03-29T05:20:06.100Z,24.09
2023-03-29T05:20:36.178Z,24.08
2023-03-29T05:21:06.253Z,24.11
2023-03-29T05:21:36.332Z,24.08
2023-03-29T05:22:06.413Z,24.06
2023-03-29T05:22:36.506Z,24.06
2023-03-29T05:23:06.614Z,24.09
2023-03-29T05:23:36.696Z,24.05
2023-03-29T05:24:06.766Z,24.08
2023-03-29T05:24:36.857Z,24.08
2023-03-29T05:25:06.942Z,24.08
2023-03-29T05:25:37.021Z,24.09
2023-03-29T05:26:07.117Z,24.11
2023-03-29T05:26:37.170Z,24.11
2023-03-29T05:27:07.265Z,24.12
2023-03-29T05:27:37.355Z,24.08
2023-03-29T05:28:07.434Z,24.12
2023-03-29T05:28:37.504Z,24.11
2023-03-29T05:29:07.595Z,24.11
2023-03-29T05:29:37.682Z,24.12
2023-03-29T05:30:07.762Z,24.13
2023-03-29T05:30:37.840Z,24.15
2023-03-29T05:31:08.014Z,24.16
2023-03-29T05:31:38.020Z,24.16
2023-03-29T05:32:08.104Z,24.16
2023-03-29T05:32:38.147Z,24.15
2023-03-29T05:33:08.121Z,24.15
2023-03-29T05:33:38.207Z,24.12
2023-03-29T05:34:08.267Z,24.16
2023-03-29T05:34:38.396Z,24.16
2023-03-29T05:35:08.450Z,24.16
2023-03-29T05:35:38.596Z,24.16
2023-03-29T05:36:08.630Z,24.19
2023-03-29T05:36:38.597Z,24.19
2023-03-29T05:37:08.683Z,24.19
2023-03-29T05:37:38.762Z,24.17
2023-03-29T05:38:08.863Z,24.19
2023-03-29T05:38:38.935Z,24.17
2023-03-29T05:39:09.012Z,24.17
2023-03-29T05:39:39.107Z,24.15
2023-03-29T05:40:09.183Z,24.16
2023-03-29T05:40:39.274Z,24.16
2023-03-29T05:41:09.341Z,24.16
2023-03-29T05:41:39.428Z,24.16
2023-03-29T05:42:09.504Z,24.12
2023-03-29T05:42:39.624Z,24.13
2023-03-29T05:43:09.703Z,24.13
2023-03-29T05:43:39.713Z,24.13
2023-03-29T05:44:09.796Z,24.13
2023-03-29T05:44:39.872Z,24.15
2023-03-29T05:45:09.966Z,24.12
2023-03-29T05:45:40.090Z,24.13
2023-03-29T05:46:10.115Z,24.12
2023-03-29T05:46:40.140Z,24.15
2023-03-29T05:47:10.231Z,24.16
2023-03-29T05:47:40.356Z,24.16
2023-03-29T05:48:10.362Z,24.16
2023-03-29T05:48:40.370Z,24.16
2023-03-29T05:49:10.442Z,24.16
2023-03-29T05:49:40.564Z,24.16
2023-03-29T05:50:10.631Z,24.16
2023-03-29T05:50:40.749Z,24.16
2023-03-29T05:51:10.798Z,24.19
2023-03-29T05:51:40.899Z,24.17
2023-03-29T05:52:11.008Z,24.20
2023-03-29T05:52:41.140Z,24.17
2023-03-29T05:53:11.223Z,24.19
2023-03-29T05:53:41.327Z,24.16
2023-03-29T05:54:11.315Z,24.17
2023-03-29T05:54:41.422Z,24.17
2023-03-29T05:55:11.504Z,24.16
2023-03-29T05:55:41.591Z,24.19
2023-03-29T05:56:11.666Z,24.19
2023-03-29T05:56:41.733Z,24.16
2023-03-29T05:57:11.854Z,24.17
2023-03-29T05:57:41.854Z,24.17
2023-03-29T05:58:11.928Z,24.19
2023-03-29T05:58:42.009Z,24.23
2023-03-29T05:59:12.125Z,24.19
2023-03-29T05:59:42.103Z,24.17
2023-03-29T06:00:12.196Z,24.17
2023-03-29T06:00:42.239Z,24.17
2023-03-29T06:01:12.277Z,24.16
2023-03-29T06:01:42.313Z,24.16
2023-03-29T06:02:12.506Z,24.16
2023-03-29T06:02:42.561Z,24.16
2023-03-29T06:03:20.166Z,24.17
2023-03-29T06:03:42.879Z,24.16
2023-03-29T06:04:12.670Z,24.16
2023-03-29T06:04:42.742Z,24.19
2023-03-29T06:05:12.673Z,24.17
2023-03-29T06:05:42.712Z,24.22
2023-03-29T06:06:12.745Z,24.19
2023-03-29T06:06:42.801Z,24.15
2023-03-29T06:07:12.865Z,24.16
2023-03-29T06:07:42.900Z,24.17
2023-03-29T06:08:12.946Z,24.17
2023-03-29T06:08:42.988Z,24.16
2023-03-29T06:09:13.024Z,24.19
2023-03-29T06:09:43.080Z,24.20
2023-03-29T06:10:13.114Z,24.22
2023-03-29T06:10:43.166Z,24.19
2023-03-29T06:11:13.291Z,24.17
2023-03-29T06:11:43.290Z,24.19
2023-03-29T06:12:13.414Z,24.19
2023-03-29T06:12:43.531Z,24.20
2023-03-29T06:13:13.579Z,24.20
2023-03-29T06:13:43.574Z,24.22
2023-03-29T06:14:43.645Z,24.17
2023-03-29T06:15:13.752Z,24.20
2023-03-29T06:15:43.842Z,24.17
2023-03-29T06:16:13.963Z,24.20
2023-03-29T06:16:44.071Z,24.17
2023-03-29T06:17:14.163Z,24.17
2023-03-29T06:17:44.225Z,24.16
2023-03-29T06:18:14.170Z,24.17
2023-03-29T06:18:44.256Z,24.16
2023-03-29T06:19:14.350Z,24.15
2023-03-29T06:19:44.633Z,24.17
2023-03-29T06:20:14.454Z,24.16
2023-03-29T06:21:14.595Z,24.12
2023-03-29T06:21:44.686Z,24.15
2023-03-29T06:22:15.010Z,24.16
2023-03-29T06:22:44.804Z,24.17
2023-03-29T06:23:14.877Z,24.11
2023-03-29T06:23:44.956Z,24.13
2023-03-29T06:24:15.059Z,24.15
2023-03-29T06:24:45.161Z,24.13
2023-03-29T06:25:15.222Z,24.16
2023-03-29T06:25:45.305Z,24.17
2023-03-29T06:26:15.389Z,24.17
2023-03-29T06:26:45.474Z,24.16
2023-03-29T06:27:15.483Z,24.19
2023-03-29T06:27:45.801Z,24.17
2023-03-29T06:28:15.650Z,24.17
2023-03-29T06:29:15.821Z,24.16
2023-03-29T06:29:45.900Z,24.16
2023-03-29T06:30:15.982Z,24.15